Terminal Aerodrome Forecast
Issued by NWS

Home | Current Version | Previous Version | Text Only | Print | Product List | Glossary On
Versions: 1 2 3 4 5 6 7 8 9 10 11 12 13 14 15 16 17 18 19 20
000
FTUS43 KILX 272100 AAA
TAFBMI
TAF AMD
KBMI 272140Z 2722/2818 27012KT 4SM -SN BR OVC008
     FM272300 27010KT P6SM BKN014
     FM280100 30008KT P6SM BKN015 OVC120=

USA.gov is the U.S. government's official web portal to all federal, state and local government web resources and services.